sensor_id;sensor_type;location;lat;lon;timestamp;temperature;humidity
41471;DHT22;27211;51.220;5.308;2023-02-16T06:08:59;7.00;99.90
41471;DHT22;27211;51.220;5.308;2023-02-16T06:11:28;6.80;99.90
41471;DHT22;27211;51.220;5.308;2023-02-16T06:14:05;6.90;99.90
41471;DHT22;27211;51.220;5.308;2023-02-16T06:16:39;7.00;99.90
41471;DHT22;27211;51.220;5.308;2023-02-16T06:19:06;7.00;99.90
41471;DHT22;27211;51.220;5.308;2023-02-16T06:21:36;7.00;99.90
41471;DHT22;27211;51.220;5.308;2023-02-16T06:24:03;7.10;99.90
41471;DHT22;27211;51.220;5.308;2023-02-16T06:26:34;7.00;99.90
41471;DHT22;27211;51.220;5.308;2023-02-16T06:29:04;6.80;99.90
41471;DHT22;27211;51.220;5.308;2023-02-16T06:31:32;7.00;99.90
41471;DHT22;27211;51.220;5.308;2023-02-16T06:33:59;7.20;99.90
41471;DHT22;27211;51.220;5.308;2023-02-16T06:36:28;7.00;99.90
41471;DHT22;27211;51.220;5.308;2023-02-16T06:38:56;7.10;99.90
41471;DHT22;27211;51.220;5.308;2023-02-16T06:41:25;7.00;99.90
41471;DHT22;27211;51.220;5.308;2023-02-16T06:44:02;7.10;99.90
41471;DHT22;27211;51.220;5.308;2023-02-16T06:46:34;6.90;99.90
41471;DHT22;27211;51.220;5.308;2023-02-16T06:49:00;7.00;99.90
41471;DHT22;27211;51.220;5.308;2023-02-16T06:51:30;7.00;99.90
41471;DHT22;27211;51.220;5.308;2023-02-16T06:54:00;7.00;99.90
41471;DHT22;27211;51.220;5.308;2023-02-16T06:56:30;7.10;99.90
41471;DHT22;27211;51.220;5.308;2023-02-16T06:59:00;7.20;99.90
41471;DHT22;27211;51.220;5.308;2023-02-16T07:01:49;7.30;99.90
41471;DHT22;27211;51.220;5.308;2023-02-16T07:04:25;7.40;99.90
41471;DHT22;27211;51.220;5.308;2023-02-16T07:06:52;7.60;99.90
41471;DHT22;27211;51.220;5.308;2023-02-16T07:09:20;7.50;99.90
41471;DHT22;27211;51.220;5.308;2023-02-16T07:11:51;7.50;99.90
41471;DHT22;27211;51.220;5.308;2023-02-16T07:17:42;7.30;99.90
41471;DHT22;27211;51.220;5.308;2023-02-16T07:20:18;7.20;99.90
41471;DHT22;27211;51.220;5.308;2023-02-16T07:22:55;7.20;99.90
41471;DHT22;27211;51.220;5.308;2023-02-16T07:28:44;7.60;99.90
41471;DHT22;27211;51.220;5.308;2023-02-16T07:31:19;7.80;99.90
41471;DHT22;27211;51.220;5.308;2023-02-16T07:33:56;7.70;99.90
41471;DHT22;27211;51.220;5.308;2023-02-16T07:36:22;7.70;99.90
41471;DHT22;27211;51.220;5.308;2023-02-16T07:38:50;7.80;99.90
41471;DHT22;27211;51.220;5.308;2023-02-16T07:41:28;7.80;99.90
41471;DHT22;27211;51.220;5.308;2023-02-16T07:43:58;8.00;99.90
41471;DHT22;27211;51.220;5.308;2023-02-16T07:46:37;8.00;99.90
41471;DHT22;27211;51.220;5.308;2023-02-16T07:49:06;8.00;99.90
41471;DHT22;27211;51.220;5.308;2023-02-16T07:51:36;8.00;99.90
41471;DHT22;27211;51.220;5.308;2023-02-16T07:54:05;8.20;99.90
41471;DHT22;27211;51.220;5.308;2023-02-16T07:56:35;8.20;99.90
41471;DHT22;27211;51.220;5.308;2023-02-16T07:59:04;8.20;99.90
41471;DHT22;27211;51.220;5.308;2023-02-16T08:01:32;8.20;99.90
41471;DHT22;27211;51.220;5.308;2023-02-16T08:03:59;8.20;99.90
41471;DHT22;27211;51.220;5.308;2023-02-16T08:06:26;8.40;99.90
41471;DHT22;27211;51.220;5.308;2023-02-16T08:08:54;8.40;99.90
41471;DHT22;27211;51.220;5.308;2023-02-16T08:11:24;8.40;99.90
41471;DHT22;27211;51.220;5.308;2023-02-16T08:13:53;8.30;99.90
41471;DHT22;27211;51.220;5.308;2023-02-16T08:16:53;8.30;99.90
41471;DHT22;27211;51.220;5.308;2023-02-16T08:19:20;8.30;99.90
41471;DHT22;27211;51.220;5.308;2023-02-16T08:21:47;8.30;99.90
41471;DHT22;27211;51.220;5.308;2023-02-16T08:24:16;8.30;99.90
41471;DHT22;27211;51.220;5.308;2023-02-16T08:26:48;8.20;99.90
41471;DHT22;27211;51.220;5.308;2023-02-16T08:29:19;8.00;99.90
41471;DHT22;27211;51.220;5.308;2023-02-16T08:31:46;8.00;99.90
41471;DHT22;27211;51.220;5.308;2023-02-16T08:34:14;8.20;99.90
41471;DHT22;27211;51.220;5.308;2023-02-16T08:36:44;8.20;99.90
41471;DHT22;27211;51.220;5.308;2023-02-16T08:39:13;8.40;99.90
41471;DHT22;27211;51.220;5.308;2023-02-16T08:41:42;8.30;99.90
41471;DHT22;27211;51.220;5.308;2023-02-16T08:44:12;8.40;99.90
41471;DHT22;27211;51.220;5.308;2023-02-16T08:46:44;8.50;99.90
41471;DHT22;27211;51.220;5.308;2023-02-16T08:49:15;8.40;99.90
41471;DHT22;27211;51.220;5.308;2023-02-16T08:51:46;8.60;99.90
41471;DHT22;27211;51.220;5.308;2023-02-16T08:54:31;8.70;99.90
41471;DHT22;27211;51.220;5.308;2023-02-16T08:57:07;8.50;99.90
41471;DHT22;27211;51.220;5.308;2023-02-16T08:59:40;8.50;99.90
41471;DHT22;27211;51.220;5.308;2023-02-16T09:02:16;8.60;99.90
41471;DHT22;27211;51.220;5.308;2023-02-16T09:04:52;8.60;99.90
41471;DHT22;27211;51.220;5.308;2023-02-16T09:07:18;8.70;99.90
41471;DHT22;27211;51.220;5.308;2023-02-16T09:09:47;8.70;99.90
41471;DHT22;27211;51.220;5.308;2023-02-16T09:12:17;9.00;99.90
41471;DHT22;27211;51.220;5.308;2023-02-16T09:14:47;9.00;99.90
41471;DHT22;27211;51.220;5.308;2023-02-16T09:17:15;8.90;99.90
41471;DHT22;27211;51.220;5.308;2023-02-16T09:19:42;8.80;99.90
41471;DHT22;27211;51.220;5.308;2023-02-16T09:22:09;8.80;99.90
41471;DHT22;27211;51.220;5.308;2023-02-16T09:24:37;8.90;99.90
41471;DHT22;27211;51.220;5.308;2023-02-16T09:27:07;8.90;99.90
41471;DHT22;27211;51.220;5.308;2023-02-16T09:29:36;9.10;99.90
41471;DHT22;27211;51.220;5.308;2023-02-16T09:32:05;9.10;99.90
41471;DHT22;27211;51.220;5.308;2023-02-16T09:34:37;9.00;99.90
41471;DHT22;27211;51.220;5.308;2023-02-16T09:37:07;9.00;99.90
41471;DHT22;27211;51.220;5.308;2023-02-16T09:39:37;8.90;99.90
41471;DHT22;27211;51.220;5.308;2023-02-16T09:45:06;9.00;99.90
41471;DHT22;27211;51.220;5.308;2023-02-16T09:47:38;9.20;99.90
41471;DHT22;27211;51.220;5.308;2023-02-16T09:50:14;9.10;99.90
41471;DHT22;27211;51.220;5.308;2023-02-16T09:52:57;9.10;99.90
41471;DHT22;27211;51.220;5.308;2023-02-16T09:55:57;9.20;99.90
41471;DHT22;27211;51.220;5.308;2023-02-16T09:58:39;9.30;99.90
41471;DHT22;27211;51.220;5.308;2023-02-16T10:10:06;9.20;99.90
41471;DHT22;27211;51.220;5.308;2023-02-16T10:12:49;9.30;99.90
41471;DHT22;27211;51.220;5.308;2023-02-16T10:15:31;9.20;99.90
41471;DHT22;27211;51.220;5.308;2023-02-16T10:18:25;9.20;99.90
41471;DHT22;27211;51.220;5.308;2023-02-16T10:20:57;9.10;99.90
41471;DHT22;27211;51.220;5.308;2023-02-16T10:23:47;9.10;99.90
41471;DHT22;27211;51.220;5.308;2023-02-16T10:26:40;9.30;99.90
41471;DHT22;27211;51.220;5.308;2023-02-16T10:29:21;9.20;99.90
41471;DHT22;27211;51.220;5.308;2023-02-16T10:34:49;9.40;99.90
41471;DHT22;27211;51.220;5.308;2023-02-16T10:40:34;9.70;99.90
41471;DHT22;27211;51.220;5.308;2023-02-16T10:43:17;9.70;99.90
41471;DHT22;27211;51.220;5.308;2023-02-16T10:45:56;9.50;99.90
41471;DHT22;27211;51.220;5.308;2023-02-16T10:48:27;9.30;99.90
41471;DHT22;27211;51.220;5.308;2023-02-16T10:51:11;9.40;99.90
41471;DHT22;27211;51.220;5.308;2023-02-16T10:54:18;9.70;99.90
41471;DHT22;27211;51.220;5.308;2023-02-16T10:57:11;9.50;99.90
41471;DHT22;27211;51.220;5.308;2023-02-16T10:59:46;9.80;99.90
41471;DHT22;27211;51.220;5.308;2023-02-16T11:02:18;9.70;99.90
41471;DHT22;27211;51.220;5.308;2023-02-16T11:04:47;9.40;99.90
41471;DHT22;27211;51.220;5.308;2023-02-16T11:07:25;9.40;99.90
41471;DHT22;27211;51.220;5.308;2023-02-16T11:09:55;9.50;99.90
41471;DHT22;27211;51.220;5.308;2023-02-16T11:16:30;9.60;99.90
41471;DHT22;27211;51.220;5.308;2023-02-16T11:22:28;9.60;99.90
41471;DHT22;27211;51.220;5.308;2023-02-16T11:25:11;9.70;99.90
41471;DHT22;27211;51.220;5.308;2023-02-16T11:27:59;9.50;99.90
41471;DHT22;27211;51.220;5.308;2023-02-16T11:30:34;9.60;99.90
41471;DHT22;27211;51.220;5.308;2023-02-16T11:33:26;9.90;99.90
41471;DHT22;27211;51.220;5.308;2023-02-16T11:36:34;10.10;99.90
41471;DHT22;27211;51.220;5.308;2023-02-16T11:39:23;10.40;99.90
41471;DHT22;27211;51.220;5.308;2023-02-16T11:41:59;10.40;99.90
41471;DHT22;27211;51.220;5.308;2023-02-16T11:44:38;10.20;99.90
41471;DHT22;27211;51.220;5.308;2023-02-16T11:49:49;10.10;99.90
41471;DHT22;27211;51.220;5.308;2023-02-16T11:54:53;9.90;99.90
41471;DHT22;27211;51.220;5.308;2023-02-16T11:57:24;10.10;99.90
41471;DHT22;27211;51.220;5.308;2023-02-16T11:59:56;10.10;99.90
41471;DHT22;27211;51.220;5.308;2023-02-16T12:05:38;10.40;99.90
41471;DHT22;27211;51.220;5.308;2023-02-16T12:08:30;10.50;99.90
41471;DHT22;27211;51.220;5.308;2023-02-16T12:13:50;11.10;99.90
41471;DHT22;27211;51.220;5.308;2023-02-16T15:32:28;13.70;99.90
41471;DHT22;27211;51.220;5.308;2023-02-16T15:34:57;13.90;99.90
41471;DHT22;27211;51.220;5.308;2023-02-16T15:37:30;13.80;99.90
41471;DHT22;27211;51.220;5.308;2023-02-16T15:40:15;13.70;99.90
41471;DHT22;27211;51.220;5.308;2023-02-16T15:42:45;13.70;99.90
41471;DHT22;27211;51.220;5.308;2023-02-16T15:45:31;13.60;99.90
41471;DHT22;27211;51.220;5.308;2023-02-16T15:48:18;13.70;99.90
41471;DHT22;27211;51.220;5.308;2023-02-16T15:50:46;13.60;99.90
41471;DHT22;27211;51.220;5.308;2023-02-16T15:53:13;13.80;99.90
41471;DHT22;27211;51.220;5.308;2023-02-16T15:55:43;13.70;99.90
41471;DHT22;27211;51.220;5.308;2023-02-16T15:58:15;13.70;99.90
41471;DHT22;27211;51.220;5.308;2023-02-16T16:00:52;13.50;99.90
41471;DHT22;27211;51.220;5.308;2023-02-16T16:03:22;13.70;99.90
41471;DHT22;27211;51.220;5.308;2023-02-16T16:05:57;14.00;99.90
41471;DHT22;27211;51.220;5.308;2023-02-16T16:08:26;13.60;99.90
41471;DHT22;27211;51.220;5.308;2023-02-16T16:10:54;13.50;99.90
41471;DHT22;27211;51.220;5.308;2023-02-16T16:13:27;13.60;99.90
41471;DHT22;27211;51.220;5.308;2023-02-16T16:15:58;13.50;99.90
41471;DHT22;27211;51.220;5.308;2023-02-16T16:21:25;13.10;99.90
41471;DHT22;27211;51.220;5.308;2023-02-16T16:23:58;13.00;99.90
41471;DHT22;27211;51.220;5.308;2023-02-16T16:26:29;13.10;99.90
41471;DHT22;27211;51.220;5.308;2023-02-16T16:28:58;13.10;99.90
41471;DHT22;27211;51.220;5.308;2023-02-16T16:31:52;13.00;99.90
41471;DHT22;27211;51.220;5.308;2023-02-16T16:34:39;13.00;99.90
41471;DHT22;27211;51.220;5.308;2023-02-16T16:40:19;13.00;99.90
41471;DHT22;27211;51.220;5.308;2023-02-16T16:45:38;13.00;99.90
41471;DHT22;27211;51.220;5.308;2023-02-16T16:48:18;12.90;99.90
41471;DHT22;27211;51.220;5.308;2023-02-16T16:50:47;12.70;99.90
41471;DHT22;27211;51.220;5.308;2023-02-16T16:55:56;12.50;99.90
41471;DHT22;27211;51.220;5.308;2023-02-16T16:58:25;12.50;99.90
41471;DHT22;27211;51.220;5.308;2023-02-16T17:00:55;12.50;99.90
41471;DHT22;27211;51.220;5.308;2023-02-16T17:03:24;12.30;99.90
41471;DHT22;27211;51.220;5.308;2023-02-16T17:05:51;12.10;99.90
41471;DHT22;27211;51.220;5.308;2023-02-16T17:08:20;12.10;99.90
41471;DHT22;27211;51.220;5.308;2023-02-16T17:10:52;12.00;99.90
41471;DHT22;27211;51.220;5.308;2023-02-16T17:13:30;12.00;99.90
41471;DHT22;27211;51.220;5.308;2023-02-16T17:16:11;11.90;99.90
41471;DHT22;27211;51.220;5.308;2023-02-16T17:18:43;11.70;99.90
41471;DHT22;27211;51.220;5.308;2023-02-16T17:21:15;11.60;99.90
41471;DHT22;27211;51.220;5.308;2023-02-16T17:24:17;11.40;99.90
41471;DHT22;27211;51.220;5.308;2023-02-16T17:26:46;11.50;99.90
41471;DHT22;27211;51.220;5.308;2023-02-16T17:29:17;11.50;99.90
41471;DHT22;27211;51.220;5.308;2023-02-16T17:31:47;11.50;99.90
41471;DHT22;27211;51.220;5.308;2023-02-16T17:34:17;11.40;99.90
41471;DHT22;27211;51.220;5.308;2023-02-16T17:36:44;11.40;99.90
41471;DHT22;27211;51.220;5.308;2023-02-16T17:39:13;11.30;99.90
41471;DHT22;27211;51.220;5.308;2023-02-16T17:41:42;11.30;99.90
41471;DHT22;27211;51.220;5.308;2023-02-16T17:44:14;11.30;99.90
41471;DHT22;27211;51.220;5.308;2023-02-16T17:46:43;11.20;99.90
41471;DHT22;27211;51.220;5.308;2023-02-16T17:49:12;11.10;99.90
41471;DHT22;27211;51.220;5.308;2023-02-16T17:51:40;11.10;99.90
41471;DHT22;27211;51.220;5.308;2023-02-16T17:54:07;11.20;99.90
41471;DHT22;27211;51.220;5.308;2023-02-16T17:56:35;11.20;99.90
41471;DHT22;27211;51.220;5.308;2023-02-16T17:59:06;11.20;99.90
41471;DHT22;27211;51.220;5.308;2023-02-16T18:01:38;11.30;99.90
41471;DHT22;27211;51.220;5.308;2023-02-16T18:04:17;11.20;99.90
41471;DHT22;27211;51.220;5.308;2023-02-16T18:06:44;11.20;99.90
41471;DHT22;27211;51.220;5.308;2023-02-16T18:09:15;11.30;99.90
41471;DHT22;27211;51.220;5.308;2023-02-16T18:11:50;11.20;99.90
41471;DHT22;27211;51.220;5.308;2023-02-16T18:14:27;11.10;99.90
41471;DHT22;27211;51.220;5.308;2023-02-16T18:17:05;11.10;99.90
41471;DHT22;27211;51.220;5.308;2023-02-16T18:19:34;11.00;99.90
41471;DHT22;27211;51.220;5.308;2023-02-16T18:22:04;10.90;99.90
41471;DHT22;27211;51.220;5.308;2023-02-16T18:24:32;10.90;99.90
41471;DHT22;27211;51.220;5.308;2023-02-16T18:27:02;11.00;99.90
41471;DHT22;27211;51.220;5.308;2023-02-16T18:29:32;11.10;99.90
41471;DHT22;27211;51.220;5.308;2023-02-16T18:32:13;11.10;99.90
41471;DHT22;27211;51.220;5.308;2023-02-16T18:34:40;11.10;99.90
41471;DHT22;27211;51.220;5.308;2023-02-16T18:37:07;11.00;99.90
41471;DHT22;27211;51.220;5.308;2023-02-16T18:39:35;11.00;99.90
41471;DHT22;27211;51.220;5.308;2023-02-16T18:42:07;11.10;99.90
41471;DHT22;27211;51.220;5.308;2023-02-16T18:44:37;11.10;99.90
41471;DHT22;27211;51.220;5.308;2023-02-16T18:47:06;11.00;99.90
41471;DHT22;27211;51.220;5.308;2023-02-16T18:49:33;10.90;99.90
41471;DHT22;27211;51.220;5.308;2023-02-16T18:52:02;11.00;99.90
41471;DHT22;27211;51.220;5.308;2023-02-16T18:54:30;11.00;99.90
41471;DHT22;27211;51.220;5.308;2023-02-16T18:56:59;11.10;99.90
41471;DHT22;27211;51.220;5.308;2023-02-16T18:59:29;11.00;99.90
41471;DHT22;27211;51.220;5.308;2023-02-16T19:02:03;11.10;99.90
41471;DHT22;27211;51.220;5.308;2023-02-16T19:04:30;11.10;99.90
41471;DHT22;27211;51.220;5.308;2023-02-16T19:06:57;11.10;99.90
41471;DHT22;27211;51.220;5.308;2023-02-16T19:09:26;11.00;99.90
41471;DHT22;27211;51.220;5.308;2023-02-16T19:11:55;11.00;99.90
41471;DHT22;27211;51.220;5.308;2023-02-16T19:14:25;10.90;99.90
41471;DHT22;27211;51.220;5.308;2023-02-16T19:17:04;11.00;99.90
41471;DHT22;27211;51.220;5.308;2023-02-16T19:19:34;10.90;99.90
41471;DHT22;27211;51.220;5.308;2023-02-16T19:22:01;10.80;99.90
41471;DHT22;27211;51.220;5.308;2023-02-16T19:24:29;10.90;99.90
41471;DHT22;27211;51.220;5.308;2023-02-16T19:27:06;10.90;99.90
41471;DHT22;27211;51.220;5.308;2023-02-16T19:29:43;10.90;99.90
41471;DHT22;27211;51.220;5.308;2023-02-16T19:32:12;10.80;99.90
41471;DHT22;27211;51.220;5.308;2023-02-16T19:34:40;10.80;99.90
41471;DHT22;27211;51.220;5.308;2023-02-16T19:37:07;11.00;99.90
41471;DHT22;27211;51.220;5.308;2023-02-16T19:39:35;11.00;99.90
41471;DHT22;27211;51.220;5.308;2023-02-16T19:42:04;10.90;99.90
41471;DHT22;27211;51.220;5.308;2023-02-16T19:44:34;10.90;99.90
41471;DHT22;27211;51.220;5.308;2023-02-16T19:47:13;10.90;99.90
41471;DHT22;27211;51.220;5.308;2023-02-16T19:49:40;11.00;99.90
41471;DHT22;27211;51.220;5.308;2023-02-16T19:52:07;11.00;99.90
41471;DHT22;27211;51.220;5.308;2023-02-16T19:54:35;11.00;99.90
41471;DHT22;27211;51.220;5.308;2023-02-16T19:57:04;10.80;99.90
41471;DHT22;27211;51.220;5.308;2023-02-16T19:59:34;10.80;99.90
41471;DHT22;27211;51.220;5.308;2023-02-16T20:02:03;10.80;99.90
41471;DHT22;27211;51.220;5.308;2023-02-16T20:04:32;11.00;99.90
41471;DHT22;27211;51.220;5.308;2023-02-16T20:06:59;10.90;99.90
41471;DHT22;27211;51.220;5.308;2023-02-16T20:09:27;11.00;99.90
41471;DHT22;27211;51.220;5.308;2023-02-16T20:11:56;11.00;99.90
41471;DHT22;27211;51.220;5.308;2023-02-16T20:14:25;11.00;99.90
41471;DHT22;27211;51.220;5.308;2023-02-16T20:17:04;11.20;99.90
41471;DHT22;27211;51.220;5.308;2023-02-16T20:19:31;11.20;99.90
41471;DHT22;27211;51.220;5.308;2023-02-16T20:21:58;11.30;99.90
41471;DHT22;27211;51.220;5.308;2023-02-16T20:24:26;11.30;99.90
41471;DHT22;27211;51.220;5.308;2023-02-16T20:26:55;11.30;99.90
41471;DHT22;27211;51.220;5.308;2023-02-16T20:29:30;11.30;99.90
41471;DHT22;27211;51.220;5.308;2023-02-16T20:31:59;11.30;99.90
41471;DHT22;27211;51.220;5.308;2023-02-16T20:34:29;11.30;99.90
41471;DHT22;27211;51.220;5.308;2023-02-16T20:36:58;11.20;99.90
41471;DHT22;27211;51.220;5.308;2023-02-16T20:39:28;11.30;99.90
41471;DHT22;27211;51.220;5.308;2023-02-16T20:41:58;11.30;99.90
41471;DHT22;27211;51.220;5.308;2023-02-16T20:44:34;11.40;99.90
41471;DHT22;27211;51.220;5.308;2023-02-16T20:47:05;11.30;99.90
41471;DHT22;27211;51.220;5.308;2023-02-16T20:49:32;11.20;99.90
41471;DHT22;27211;51.220;5.308;2023-02-16T20:52:01;11.20;99.90
41471;DHT22;27211;51.220;5.308;2023-02-16T20:54:29;11.10;99.90
41471;DHT22;27211;51.220;5.308;2023-02-16T20:56:59;11.20;99.90
41471;DHT22;27211;51.220;5.308;2023-02-16T20:59:31;11.20;99.90
41471;DHT22;27211;51.220;5.308;2023-02-16T21:02:09;11.30;99.90
41471;DHT22;27211;51.220;5.308;2023-02-16T21:04:36;11.40;99.90
41471;DHT22;27211;51.220;5.308;2023-02-16T21:07:07;11.40;99.90
41471;DHT22;27211;51.220;5.308;2023-02-16T21:09:35;11.60;99.90
41471;DHT22;27211;51.220;5.308;2023-02-16T21:12:08;11.60;99.90
41471;DHT22;27211;51.220;5.308;2023-02-16T21:14:45;11.70;99.90
41471;DHT22;27211;51.220;5.308;2023-02-16T21:17:15;11.50;99.90
41471;DHT22;27211;51.220;5.308;2023-02-16T21:19:45;11.60;99.90
41471;DHT22;27211;51.220;5.308;2023-02-16T21:22:14;11.60;99.90
41471;DHT22;27211;51.220;5.308;2023-02-16T21:24:43;11.60;99.90
41471;DHT22;27211;51.220;5.308;2023-02-16T21:27:13;11.60;99.90
41471;DHT22;27211;51.220;5.308;2023-02-16T21:29:51;11.60;99.90
41471;DHT22;27211;51.220;5.308;2023-02-16T21:32:19;11.60;99.90
41471;DHT22;27211;51.220;5.308;2023-02-16T22:29:33;11.90;99.90
41471;DHT22;27211;51.220;5.308;2023-02-16T22:32:05;11.80;99.90
41471;DHT22;27211;51.220;5.308;2023-02-16T22:34:33;11.90;99.90
41471;DHT22;27211;51.220;5.308;2023-02-16T22:37:01;11.90;99.90
41471;DHT22;27211;51.220;5.308;2023-02-16T22:39:30;11.90;99.90
41471;DHT22;27211;51.220;5.308;2023-02-16T22:41:59;11.90;99.90
41471;DHT22;27211;51.220;5.308;2023-02-16T22:44:28;11.80;99.90
41471;DHT22;27211;51.220;5.308;2023-02-16T22:47:05;11.70;99.90
41471;DHT22;27211;51.220;5.308;2023-02-16T22:49:35;11.70;99.90
41471;DHT22;27211;51.220;5.308;2023-02-16T22:52:04;11.80;99.90
41471;DHT22;27211;51.220;5.308;2023-02-16T22:54:32;11.90;99.90
41471;DHT22;27211;51.220;5.308;2023-02-16T22:57:04;11.80;99.90
41471;DHT22;27211;51.220;5.308;2023-02-16T22:59:33;11.70;99.90
41471;DHT22;27211;51.220;5.308;2023-02-16T23:02:03;11.80;99.90
41471;DHT22;27211;51.220;5.308;2023-02-16T23:04:39;11.70;99.90
41471;DHT22;27211;51.220;5.308;2023-02-16T23:07:07;11.80;99.90
41471;DHT22;27211;51.220;5.308;2023-02-16T23:09:35;11.80;99.90
41471;DHT22;27211;51.220;5.308;2023-02-16T23:12:04;11.90;99.90
41471;DHT22;27211;51.220;5.308;2023-02-16T23:14:40;12.10;99.90
41471;DHT22;27211;51.220;5.308;2023-02-16T23:17:08;12.20;99.90
41471;DHT22;27211;51.220;5.308;2023-02-16T23:19:35;12.00;99.90
41471;DHT22;27211;51.220;5.308;2023-02-16T23:22:06;12.00;99.90
41471;DHT22;27211;51.220;5.308;2023-02-16T23:24:34;12.00;99.90
41471;DHT22;27211;51.220;5.308;2023-02-16T23:27:03;11.90;99.90
41471;DHT22;27211;51.220;5.308;2023-02-16T23:29:32;12.00;99.90
41471;DHT22;27211;51.220;5.308;2023-02-16T23:32:05;12.00;99.90
41471;DHT22;27211;51.220;5.308;2023-02-16T23:34:37;12.00;99.90
41471;DHT22;27211;51.220;5.308;2023-02-16T23:37:03;12.00;99.90
41471;DHT22;27211;51.220;5.308;2023-02-16T23:39:34;12.00;99.90
41471;DHT22;27211;51.220;5.308;2023-02-16T23:42:04;12.00;99.90
41471;DHT22;27211;51.220;5.308;2023-02-16T23:44:34;11.90;99.90
41471;DHT22;27211;51.220;5.308;2023-02-16T23:47:05;11.90;99.90
41471;DHT22;27211;51.220;5.308;2023-02-16T23:49:33;11.90;99.90
41471;DHT22;27211;51.220;5.308;2023-02-16T23:52:03;12.00;99.90
41471;DHT22;27211;51.220;5.308;2023-02-16T23:54:31;12.20;99.90
41471;DHT22;27211;51.220;5.308;2023-02-16T23:57:06;12.20;99.90
41471;DHT22;27211;51.220;5.308;2023-02-16T23:59:38;12.30;99.90
